Time;durP1;ratioP1;P1;durP2;ratioP2;P2;SDS_P1;SDS_P2;PMS_P1;PMS_P2;Temp;Humidity;BMP_temperature;BMP_pressure;BME280_temperature;BME280_humidity;BME280_pressure;Samples;Min_cycle;Max_cycle;Signal;HPM_P1;HPM_P2
2024/02/08 00:00:28;;;;;;;14.90;10.63;;;4.90;99.90;;;;;;5029643;28;20225;-68
2024/02/08 00:02:54;;;;;;;14.90;9.10;;;4.90;99.90;;;;;;5030153;28;20183;-68
2024/02/08 00:05:19;;;;;;;14.23;9.90;;;4.90;99.90;;;;;;5030858;28;20189;-65
2024/02/08 00:07:45;;;;;;;16.43;9.70;;;4.90;99.90;;;;;;5028824;28;20210;-67
2024/02/08 00:10:11;;;;;;;18.33;10.77;;;4.90;99.90;;;;;;5030172;28;20194;-65
2024/02/08 00:12:38;;;;;;;15.67;9.90;;;4.90;99.90;;;;;;5029545;28;20332;-68
2024/02/08 00:15:05;;;;;;;19.33;10.57;;;4.90;99.90;;;;;;5029904;28;20200;-66
2024/02/08 00:17:31;;;;;;;19.10;10.70;;;4.90;99.90;;;;;;5028987;28;20456;-70
2024/02/08 00:19:57;;;;;;;21.23;10.27;;;4.90;99.90;;;;;;5030217;28;21077;-68
2024/02/08 00:22:23;;;;;;;18.67;10.40;;;4.90;99.90;;;;;;5029158;28;20208;-68
2024/02/08 00:24:48;;;;;;;16.93;10.00;;;4.90;99.90;;;;;;5029017;28;20226;-66
2024/02/08 00:27:18;;;;;;;16.17;9.67;;;4.90;99.90;;;;;;5010512;28;20193;-66
2024/02/08 00:29:44;;;;;;;14.43;9.40;;;4.90;99.90;;;;;;5029795;28;20185;-67
2024/02/08 00:32:09;;;;;;;12.50;9.20;;;4.90;99.90;;;;;;5029084;28;20880;-67
2024/02/08 00:34:38;;;;;;;18.20;10.30;;;4.90;99.90;;;;;;5030719;28;20483;-66
2024/02/08 00:37:07;;;;;;;16.83;9.93;;;4.90;99.90;;;;;;5028713;28;20238;-66
2024/02/08 00:39:34;;;;;;;20.77;10.80;;;4.90;99.90;;;;;;5028494;28;20512;-72
2024/02/08 00:41:59;;;;;;;15.80;9.77;;;4.90;99.90;;;;;;5029059;28;20422;-65
2024/02/08 00:44:27;;;;;;;15.40;9.40;;;4.90;99.90;;;;;;5028075;28;20422;-69
2024/02/08 00:46:54;;;;;;;21.50;11.17;;;4.90;99.90;;;;;;5028708;28;20201;-67
2024/02/08 00:49:21;;;;;;;13.87;9.37;;;4.90;99.90;;;;;;5028612;28;20425;-68
2024/02/08 00:51:49;;;;;;;17.93;10.10;;;4.90;99.90;;;;;;5029629;28;20536;-68
2024/02/08 00:54:16;;;;;;;18.30;11.27;;;4.90;99.90;;;;;;5028370;28;20467;-66
2024/02/08 00:56:42;;;;;;;14.47;10.00;;;4.90;99.90;;;;;;5028464;28;21153;-67
2024/02/08 00:59:09;;;;;;;18.60;10.70;;;4.90;99.90;;;;;;5028691;28;20465;-70
2024/02/08 01:01:36;;;;;;;24.20;10.50;;;4.90;99.90;;;;;;5028691;28;20464;-65
2024/02/08 01:04:02;;;;;;;17.40;10.40;;;4.90;99.90;;;;;;5028373;28;20436;-66
2024/02/08 01:06:30;;;;;;;14.43;10.30;;;4.90;99.90;;;;;;5028093;28;20421;-67
2024/02/08 01:08:56;;;;;;;15.07;9.70;;;4.90;99.90;;;;;;5029706;28;21460;-73
2024/02/08 01:11:22;;;;;;;16.00;10.00;;;4.90;99.90;;;;;;5026421;28;20897;-69
2024/02/08 01:13:47;;;;;;;15.73;10.00;;;4.90;99.90;;;;;;5028090;28;20214;-68
2024/02/08 01:16:14;;;;;;;13.63;9.13;;;4.90;99.90;;;;;;5027481;28;20531;-67
2024/02/08 01:18:42;;;;;;;16.50;9.73;;;4.90;99.90;;;;;;5029201;28;20505;-67
2024/02/08 01:21:11;;;;;;;14.77;9.63;;;5.00;99.90;;;;;;5028169;28;20470;-68
2024/02/08 01:23:46;;;;;;;16.73;9.33;;;5.00;99.90;;;;;;5027995;28;20433;-69
2024/02/08 01:26:12;;;;;;;14.07;9.20;;;5.00;99.90;;;;;;5026947;28;21205;-67
2024/02/08 01:28:37;;;;;;;15.33;9.17;;;5.00;99.90;;;;;;5027554;28;20421;-66
2024/02/08 01:31:03;;;;;;;11.67;8.60;;;5.00;99.90;;;;;;5029904;28;20190;-68
2024/02/08 01:33:29;;;;;;;15.93;8.80;;;5.00;99.90;;;;;;5029887;28;20194;-69
2024/02/08 01:35:54;;;;;;;13.97;8.47;;;5.00;99.90;;;;;;5029875;28;20178;-70
2024/02/08 01:38:21;;;;;;;11.80;7.87;;;5.00;99.90;;;;;;5027986;28;20182;-69
2024/02/08 01:40:47;;;;;;;13.60;8.93;;;5.00;99.90;;;;;;5028986;28;20259;-69
2024/02/08 01:43:12;;;;;;;17.40;9.23;;;5.00;99.90;;;;;;5029179;28;20437;-67
2024/02/08 01:45:40;;;;;;;14.63;9.90;;;5.00;99.90;;;;;;5029138;28;20192;-71
2024/02/08 01:48:11;;;;;;;15.80;8.90;;;5.10;99.90;;;;;;5029606;28;21592;-69
2024/02/08 01:50:58;;;;;;;14.50;9.90;;;5.10;99.90;;;;;;5029621;28;20425;-69
2024/02/08 01:53:28;;;;;;;12.07;8.80;;;5.00;99.90;;;;;;5013121;28;21047;-69
2024/02/08 01:55:59;;;;;;;15.10;8.50;;;5.00;99.90;;;;;;5029550;28;20433;-69
2024/02/08 01:58:26;;;;;;;12.57;8.70;;;5.00;99.90;;;;;;5029265;28;20425;-70
2024/02/08 02:00:55;;;;;;;15.83;9.20;;;5.00;99.90;;;;;;5029201;28;20433;-71
2024/02/08 02:03:23;;;;;;;14.67;9.10;;;5.00;99.90;;;;;;5029179;28;20430;-69
2024/02/08 02:05:49;;;;;;;12.60;9.00;;;5.00;99.90;;;;;;5028491;28;20437;-66
2024/02/08 02:08:18;;;;;;;17.73;8.47;;;5.00;99.90;;;;;;5028963;28;20520;-69
2024/02/08 02:10:53;;;;;;;15.93;9.23;;;5.00;99.90;;;;;;5028591;28;20955;-70
2024/02/08 02:13:19;;;;;;;15.83;9.60;;;5.00;99.90;;;;;;5029057;28;20452;-71
2024/02/08 02:15:45;;;;;;;10.93;8.90;;;5.00;99.90;;;;;;5028998;28;20456;-69
2024/02/08 02:18:12;;;;;;;12.03;8.10;;;5.10;99.90;;;;;;5029800;28;20567;-69
2024/02/08 02:20:38;;;;;;;11.70;7.60;;;5.00;99.90;;;;;;5028233;28;20964;-69
2024/02/08 02:23:09;;;;;;;12.10;8.03;;;5.00;99.90;;;;;;5030017;28;20460;-70
2024/02/08 02:25:38;;;;;;;11.47;8.23;;;5.00;99.90;;;;;;5028159;28;20425;-66
2024/02/08 02:28:07;;;;;;;11.97;8.27;;;5.00;99.90;;;;;;5013230;28;20490;-69
2024/02/08 02:30:35;;;;;;;10.50;7.90;;;5.00;99.90;;;;;;5031609;28;20436;-71
2024/02/08 02:33:03;;;;;;;11.70;7.93;;;5.00;99.90;;;;;;5034162;28;20420;-69
2024/02/08 02:35:29;;;;;;;10.80;8.73;;;5.00;99.90;;;;;;5032244;28;20946;-68
2024/02/08 02:38:02;;;;;;;13.43;8.00;;;5.00;99.90;;;;;;5031714;28;20567;-66
2024/02/08 02:40:30;;;;;;;10.37;7.90;;;5.00;99.90;;;;;;5031484;28;20472;-65
2024/02/08 02:42:57;;;;;;;11.80;8.50;;;5.00;99.90;;;;;;5032915;28;20456;-69
2024/02/08 02:45:23;;;;;;;11.17;8.50;;;5.00;99.90;;;;;;5063335;28;20455;-67
2024/02/08 02:47:53;;;;;;;11.50;7.43;;;5.00;99.90;;;;;;5031950;28;20546;-66
2024/02/08 02:50:20;;;;;;;13.73;8.83;;;5.00;99.90;;;;;;5031497;28;20993;-67
2024/02/08 02:52:46;;;;;;;10.90;8.27;;;5.00;99.90;;;;;;5032222;28;20471;-69
2024/02/08 02:55:12;;;;;;;13.40;9.57;;;5.00;99.90;;;;;;5033211;28;20435;-65
2024/02/08 02:57:43;;;;;;;14.67;8.27;;;5.00;99.90;;;;;;5030900;28;20482;-68
2024/02/08 03:00:23;;;;;;;15.40;9.73;;;5.00;99.90;;;;;;5032313;28;20478;-68
2024/02/08 03:02:51;;;;;;;11.60;7.93;;;5.00;99.90;;;;;;5032114;28;20455;-69
2024/02/08 03:05:22;;;;;;;12.27;7.70;;;5.00;99.90;;;;;;5031581;28;20433;-68
2024/02/08 03:07:49;;;;;;;12.03;8.57;;;5.00;99.90;;;;;;5031346;28;20511;-66
2024/02/08 03:10:22;;;;;;;12.43;9.10;;;5.00;99.90;;;;;;5031783;28;20886;-71
2024/02/08 03:12:51;;;;;;;10.73;7.90;;;4.90;99.90;;;;;;5031320;28;20428;-68
2024/02/08 03:15:19;;;;;;;14.13;8.50;;;4.90;99.90;;;;;;5031295;28;20428;-66
2024/02/08 03:17:45;;;;;;;13.07;8.83;;;4.90;99.90;;;;;;5031303;28;20425;-67
2024/02/08 03:20:17;;;;;;;12.37;8.60;;;4.90;99.90;;;;;;5032568;28;20579;-70
2024/02/08 03:22:46;;;;;;;16.57;9.53;;;4.90;99.90;;;;;;5032548;28;20425;-66
2024/02/08 03:25:15;;;;;;;14.27;9.53;;;4.90;99.90;;;;;;5016479;28;20567;-65
2024/02/08 03:27:44;;;;;;;12.50;9.40;;;4.90;99.90;;;;;;5029653;28;20432;-70
2024/02/08 03:30:31;;;;;;;14.70;10.00;;;4.80;99.90;;;;;;5031708;28;20432;-71
2024/02/08 03:32:58;;;;;;;16.67;10.80;;;4.80;99.90;;;;;;5032360;28;20429;-69
2024/02/08 03:35:25;;;;;;;16.07;8.57;;;4.80;99.90;;;;;;5030903;28;20425;-69
2024/02/08 03:37:54;;;;;;;13.90;9.17;;;4.80;99.90;;;;;;5029782;28;20505;-67
2024/02/08 03:40:25;;;;;;;11.97;8.70;;;4.80;99.90;;;;;;5030785;28;20468;-66
2024/02/08 03:42:53;;;;;;;11.43;8.07;;;4.80;99.90;;;;;;5030913;28;20431;-70
2024/02/08 03:45:23;;;;;;;13.70;9.13;;;4.80;99.90;;;;;;5030491;28;20538;-68
2024/02/08 03:47:53;;;;;;;15.40;9.70;;;4.80;99.90;;;;;;5029373;28;20842;-69
2024/02/08 03:50:19;;;;;;;13.73;8.67;;;4.80;99.90;;;;;;5030514;28;20424;-67
2024/02/08 03:52:45;;;;;;;13.37;8.63;;;4.80;99.90;;;;;;5031025;28;21218;-68
2024/02/08 03:55:13;;;;;;;9.90;7.90;;;4.80;99.90;;;;;;5031544;28;20456;-68
2024/02/08 03:57:39;;;;;;;14.20;8.73;;;4.80;99.90;;;;;;5030089;28;20432;-69
2024/02/08 04:00:13;;;;;;;13.03;9.53;;;4.80;99.90;;;;;;5031080;28;20827;-69
2024/02/08 04:02:43;;;;;;;12.57;9.83;;;4.70;99.90;;;;;;5030603;28;20443;-67
2024/02/08 04:05:19;;;;;;;17.30;9.57;;;4.60;99.90;;;;;;5030708;28;20984;-65
2024/02/08 04:07:56;;;;;;;13.13;9.10;;;4.60;99.90;;;;;;5029560;28;20927;-70
2024/02/08 04:54:09;;;;;;;16.40;10.67;;;4.80;99.90;;;;;;5029998;28;20445;-66
2024/02/08 04:56:38;;;;;;;18.43;11.53;;;4.90;99.90;;;;;;5028905;28;20448;-70
2024/02/08 04:59:05;;;;;;;19.40;11.57;;;4.80;99.90;;;;;;5029025;28;20465;-70
2024/02/08 05:01:38;;;;;;;17.97;11.33;;;4.90;99.90;;;;;;5028873;28;20449;-67
2024/02/08 05:04:04;;;;;;;17.60;12.10;;;4.90;99.90;;;;;;5029625;28;20439;-69
2024/02/08 05:06:30;;;;;;;19.37;11.20;;;4.90;99.90;;;;;;5027093;28;21164;-70
2024/02/08 05:08:59;;;;;;;17.43;11.87;;;4.90;99.90;;;;;;5029489;28;20434;-67
2024/02/08 05:11:28;;;;;;;23.53;12.70;;;4.90;99.90;;;;;;5029030;28;20298;-69
2024/02/08 05:14:00;;;;;;;22.53;12.13;;;4.90;99.90;;;;;;5028824;28;20440;-67
2024/02/08 05:16:32;;;;;;;17.93;11.67;;;4.90;99.90;;;;;;5027012;28;20437;-68
2024/02/08 05:18:58;;;;;;;16.27;11.20;;;4.90;99.90;;;;;;5029197;28;20499;-67
2024/02/08 05:21:23;;;;;;;18.03;12.33;;;4.90;99.90;;;;;;5029129;28;20429;-68
2024/02/08 05:23:51;;;;;;;20.03;11.00;;;4.90;99.90;;;;;;5024678;28;20177;-68
2024/02/08 05:26:18;;;;;;;18.30;10.23;;;4.90;99.90;;;;;;5026580;28;20194;-67
2024/02/08 05:28:45;;;;;;;16.70;10.40;;;4.90;99.90;;;;;;5025655;28;20963;-68
2024/02/08 05:31:10;;;;;;;18.03;9.83;;;4.90;99.90;;;;;;5026044;28;20428;-70
2024/02/08 05:33:40;;;;;;;17.20;10.50;;;4.90;99.90;;;;;;5029375;28;20965;-69
2024/02/08 05:36:07;;;;;;;16.73;10.40;;;4.90;99.90;;;;;;5026467;28;20557;-68
2024/02/08 05:38:41;;;;;;;18.23;10.83;;;4.90;99.90;;;;;;5028758;28;20433;-67
2024/02/08 05:41:10;;;;;;;20.13;10.50;;;4.90;99.90;;;;;;5025471;28;20509;-72
2024/02/08 05:43:46;;;;;;;16.70;10.57;;;4.80;99.90;;;;;;5028687;28;20425;-70
2024/02/08 05:46:19;;;;;;;16.27;11.40;;;4.80;99.90;;;;;;5028187;28;20479;-65
2024/02/08 05:48:51;;;;;;;16.40;10.27;;;4.80;99.90;;;;;;5027071;28;20547;-66
2024/02/08 05:51:20;;;;;;;14.80;10.83;;;4.80;99.90;;;;;;5020904;28;20444;-68
2024/02/08 05:53:51;;;;;;;17.10;11.37;;;4.70;99.90;;;;;;5024767;28;20474;-67
2024/02/08 05:56:21;;;;;;;18.20;11.10;;;4.80;99.90;;;;;;5024820;28;20484;-67
2024/02/08 05:58:52;;;;;;;13.40;9.80;;;4.80;99.90;;;;;;5024402;28;20438;-64
2024/02/08 06:01:23;;;;;;;17.77;11.73;;;4.70;99.90;;;;;;5027130;28;20478;-66
2024/02/08 06:03:49;;;;;;;18.37;10.00;;;4.70;99.90;;;;;;5034309;28;21006;-69
2024/02/08 06:06:26;;;;;;;19.07;11.37;;;4.70;99.90;;;;;;5032823;28;20671;-69
2024/02/08 06:08:56;;;;;;;16.43;11.03;;;4.70;99.90;;;;;;5035615;28;20811;-70
2024/02/08 06:11:27;;;;;;;15.50;11.20;;;4.70;99.90;;;;;;5033240;28;20544;-68
2024/02/08 06:14:06;;;;;;;18.40;11.93;;;4.70;99.90;;;;;;5035416;28;20435;-66
2024/02/08 06:16:47;;;;;;;22.17;12.07;;;4.70;99.90;;;;;;5034449;28;20429;-70
2024/02/08 06:19:15;;;;;;;25.03;12.70;;;4.80;99.90;;;;;;5032979;28;21238;-64
2024/02/08 06:21:54;;;;;;;16.23;12.73;;;4.80;99.90;;;;;;5031969;28;21328;-69
2024/02/08 06:26:58;;;;;;;18.40;11.63;;;4.80;99.90;;;;;;5034472;28;20435;-68
2024/02/08 06:29:46;;;;;;;18.50;11.20;;;4.80;99.90;;;;;;5033172;28;20489;-70
2024/02/08 06:37:56;;;;;;;18.50;12.00;;;4.80;99.90;;;;;;5034481;28;20436;-67
2024/02/08 06:40:37;;;;;;;21.47;12.23;;;4.80;99.90;;;;;;5031402;28;20484;-70
2024/02/08 07:38:10;;;;;;;15.10;11.43;;;5.00;99.90;;;;;;5028707;28;20441;-69
2024/02/08 07:40:36;;;;;;;20.67;12.40;;;5.00;99.90;;;;;;5029869;28;20476;-69
2024/02/08 07:45:47;;;;;;;20.77;12.63;;;5.00;99.90;;;;;;5029748;28;20185;-66
2024/02/08 07:48:13;;;;;;;20.50;12.10;;;5.00;99.90;;;;;;5023433;28;20464;-68
2024/02/08 07:50:47;;;;;;;15.67;11.37;;;5.10;99.90;;;;;;5025659;28;20452;-67
2024/02/08 07:53:35;;;;;;;15.33;11.00;;;5.10;99.90;;;;;;5029882;28;20444;-64
2024/02/08 07:58:56;;;;;;;15.83;10.60;;;5.10;99.90;;;;;;5030413;28;20549;-70
2024/02/08 08:01:30;;;;;;;21.17;12.00;;;5.10;99.90;;;;;;5028927;28;20428;-69
2024/02/08 08:03:56;;;;;;;14.60;11.50;;;5.00;99.90;;;;;;5030951;28;20432;-67
2024/02/08 08:06:34;;;;;;;19.03;11.63;;;5.10;99.90;;;;;;5028186;28;20763;-69
2024/02/08 08:09:18;;;;;;;14.33;11.37;;;5.10;99.90;;;;;;5029952;28;21031;-67
2024/02/08 08:11:48;;;;;;;21.70;12.13;;;5.10;99.90;;;;;;5029428;28;20428;-67
2024/02/08 08:17:31;;;;;;;18.53;13.07;;;5.10;99.90;;;;;;5028832;28;20444;-68
2024/02/08 08:20:15;;;;;;;19.67;12.50;;;5.10;99.90;;;;;;5029908;28;20483;-65
2024/02/08 08:22:54;;;;;;;23.23;14.23;;;5.10;99.90;;;;;;5029947;28;20846;-67
2024/02/08 08:25:29;;;;;;;20.80;13.93;;;5.10;99.90;;;;;;5030423;28;20471;-70
2024/02/08 08:28:27;;;;;;;21.30;13.57;;;5.10;99.90;;;;;;5027488;28;20431;-70
2024/02/08 08:31:00;;;;;;;22.53;12.77;;;5.20;99.90;;;;;;5028765;28;21044;-68
2024/02/08 08:33:58;;;;;;;19.27;12.30;;;5.20;99.90;;;;;;5029907;28;20546;-64
2024/02/08 08:36:29;;;;;;;21.33;13.60;;;5.20;99.90;;;;;;5028668;28;20451;-67
2024/02/08 08:41:47;;;;;;;20.73;13.03;;;5.30;99.90;;;;;;5028107;28;20442;-67
2024/02/08 08:44:15;;;;;;;19.77;11.47;;;5.30;99.90;;;;;;5029040;28;20521;-66
2024/02/08 08:46:41;;;;;;;15.27;11.40;;;5.40;99.90;;;;;;5028109;28;20444;-69
2024/02/08 08:49:14;;;;;;;19.07;11.07;;;5.40;99.90;;;;;;5029015;28;20445;-65
2024/02/08 08:51:50;;;;;;;19.00;11.70;;;5.40;99.90;;;;;;5023220;28;20503;-69
2024/02/08 08:54:20;;;;;;;18.73;11.17;;;5.50;99.90;;;;;;5027031;28;20447;-70
2024/02/08 08:56:49;;;;;;;19.60;12.10;;;5.60;99.90;;;;;;5027908;28;20444;-69
2024/02/08 08:59:19;;;;;;;21.03;11.93;;;5.60;99.90;;;;;;5025406;28;21213;-69
2024/02/08 09:01:48;;;;;;;17.40;11.30;;;5.70;99.90;;;;;;5027354;28;20479;-69
2024/02/08 09:04:32;;;;;;;16.40;10.93;;;5.70;99.90;;;;;;5026911;28;20439;-66
2024/02/08 09:07:08;;;;;;;17.83;11.07;;;5.70;99.90;;;;;;5026057;28;20591;-68
2024/02/08 09:09:54;;;;;;;13.20;10.20;;;5.70;99.90;;;;;;5029099;28;20461;-66
2024/02/08 09:12:36;;;;;;;17.03;12.27;;;5.80;99.90;;;;;;5028278;28;20449;-68
2024/02/08 09:15:19;;;;;;;15.67;10.00;;;5.80;99.90;;;;;;5029382;28;21329;-65
2024/02/08 09:17:58;;;;;;;13.10;9.10;;;5.80;99.90;;;;;;5028673;28;20518;-69
2024/02/08 09:20:28;;;;;;;13.80;10.33;;;5.80;99.90;;;;;;5027121;28;20479;-66
2024/02/08 09:22:57;;;;;;;19.67;10.97;;;5.80;99.90;;;;;;5027753;28;20485;-66
2024/02/08 09:25:23;;;;;;;16.33;10.53;;;5.90;99.90;;;;;;5027500;28;21021;-66
2024/02/08 09:27:55;;;;;;;13.93;9.53;;;5.80;99.90;;;;;;5027275;28;20444;-68
2024/02/08 09:30:39;;;;;;;12.43;9.10;;;5.90;99.90;;;;;;5012994;28;20182;-69
2024/02/08 09:33:29;;;;;;;14.20;9.67;;;5.90;99.90;;;;;;5027962;28;20447;-68
2024/02/08 09:36:02;;;;;;;13.27;9.73;;;6.00;99.90;;;;;;5028238;28;20439;-69
2024/02/08 09:38:28;;;;;;;14.87;10.47;;;5.90;99.90;;;;;;5027522;28;20445;-70
2024/02/08 09:41:01;;;;;;;15.73;10.23;;;5.90;99.90;;;;;;5025915;28;20841;-67
2024/02/08 09:43:29;;;;;;;66.30;40.83;;;6.00;99.90;;;;;;5027649;28;20468;-64
2024/02/08 09:46:05;;;;;;;15.23;10.40;;;5.90;99.90;;;;;;5028413;28;20564;-68
2024/02/08 09:48:51;;;;;;;13.07;9.13;;;5.90;99.90;;;;;;5028643;28;20440;-66
2024/02/08 09:51:25;;;;;;;12.80;9.13;;;6.00;99.90;;;;;;5028676;28;20429;-66
2024/02/08 09:53:51;;;;;;;15.90;9.23;;;6.00;99.90;;;;;;5029872;28;20428;-68
2024/02/08 09:56:35;;;;;;;10.60;7.40;;;6.00;99.90;;;;;;5027414;28;20459;-66
2024/02/08 09:59:07;;;;;;;14.13;7.90;;;5.90;99.90;;;;;;5029505;28;20444;-67
2024/02/08 10:01:43;;;;;;;12.77;7.83;;;5.90;99.90;;;;;;5028589;28;20424;-65
2024/02/08 10:04:16;;;;;;;11.70;8.03;;;5.90;99.90;;;;;;5028062;28;20425;-65
2024/02/08 10:09:40;;;;;;;10.70;7.57;;;6.00;99.90;;;;;;5027982;28;20433;-66
2024/02/08 10:12:18;;;;;;;11.40;8.00;;;6.00;99.90;;;;;;5027599;28;21313;-67
2024/02/08 10:14:47;;;;;;;10.93;7.80;;;6.00;99.90;;;;;;5026269;28;20480;-69
2024/02/08 10:17:27;;;;;;;12.53;8.80;;;6.00;99.90;;;;;;5024493;28;20445;-70
2024/02/08 10:22:57;;;;;;;12.50;7.80;;;6.10;99.90;;;;;;5027797;28;20724;-69
2024/02/08 10:28:21;;;;;;;12.30;9.27;;;6.10;99.90;;;;;;5026118;28;20483;-67
2024/02/08 10:31:05;;;;;;;11.90;8.10;;;6.10;99.90;;;;;;5028930;28;20438;-68
2024/02/08 10:33:37;;;;;;;11.90;7.20;;;6.10;99.90;;;;;;5028308;28;20456;-71
2024/02/08 10:36:18;;;;;;;10.93;7.53;;;6.10;99.90;;;;;;5029147;28;20473;-67
2024/02/08 10:39:02;;;;;;;13.90;8.57;;;6.10;99.90;;;;;;5028648;28;20440;-66
2024/02/08 10:41:44;;;;;;;13.47;7.90;;;6.10;99.90;;;;;;5028626;28;20444;-64
2024/02/08 10:44:17;;;;;;;9.97;7.20;;;6.10;99.90;;;;;;5027686;28;20552;-69
2024/02/08 10:46:46;;;;;;;11.33;6.97;;;6.10;99.90;;;;;;5029112;28;20449;-67
2024/02/08 10:49:12;;;;;;;10.47;7.30;;;6.10;99.90;;;;;;5028583;28;20587;-64
2024/02/08 10:51:43;;;;;;;13.23;7.90;;;6.10;99.90;;;;;;5032716;28;20443;-69
2024/02/08 10:54:14;;;;;;;10.63;7.40;;;6.20;99.90;;;;;;5031435;28;20435;-67
2024/02/08 10:57:06;;;;;;;9.00;6.63;;;6.20;99.90;;;;;;5032374;28;20433;-67
2024/02/08 11:02:35;;;;;;;7.80;6.40;;;6.00;99.90;;;;;;5031526;28;20790;-70
2024/02/08 11:07:48;;;;;;;10.07;6.43;;;6.10;99.90;;;;;;5032409;28;20431;-67
2024/02/08 11:10:20;;;;;;;11.40;7.37;;;6.10;99.90;;;;;;5030749;28;20437;-67
2024/02/08 11:12:51;;;;;;;12.47;7.90;;;6.20;99.90;;;;;;5031202;28;20796;-70
2024/02/08 11:15:30;;;;;;;12.30;6.90;;;6.20;99.90;;;;;;5030867;28;20433;-65
2024/02/08 11:17:58;;;;;;;9.17;6.70;;;6.30;99.90;;;;;;5030535;28;20436;-66
2024/02/08 11:21:03;;;;;;;9.87;7.00;;;6.30;99.90;;;;;;5027973;28;20958;-69
2024/02/08 11:23:31;;;;;;;9.80;6.47;;;6.30;99.90;;;;;;5030929;28;20444;-68
2024/02/08 11:26:06;;;;;;;9.57;6.70;;;6.30;99.90;;;;;;5031331;28;20432;-69
2024/02/08 11:28:44;;;;;;;8.27;6.40;;;6.30;99.90;;;;;;5029678;28;20449;-68
2024/02/08 11:31:16;;;;;;;9.27;6.50;;;6.30;99.90;;;;;;5031019;28;20796;-68
2024/02/08 11:33:43;;;;;;;7.30;5.73;;;6.20;99.90;;;;;;5032662;28;20796;-70
2024/02/08 11:36:16;;;;;;;8.00;5.83;;;6.20;99.90;;;;;;5029940;28;20440;-66
2024/02/08 11:38:57;;;;;;;15.60;6.40;;;6.30;99.90;;;;;;5031265;28;20448;-67
2024/02/08 11:41:25;;;;;;;9.23;6.73;;;6.30;99.90;;;;;;5029945;28;20551;-65
2024/02/08 11:44:05;;;;;;;10.50;6.50;;;6.40;99.90;;;;;;5030168;28;20441;-66
2024/02/08 11:46:37;;;;;;;8.73;5.70;;;6.40;99.90;;;;;;5029052;28;20458;-66
2024/02/08 11:49:14;;;;;;;8.90;5.80;;;6.40;99.90;;;;;;5031555;28;20441;-67
2024/02/08 11:51:48;;;;;;;9.40;6.13;;;6.40;99.90;;;;;;5030446;28;20515;-69
2024/02/08 11:54:37;;;;;;;9.17;6.53;;;6.40;99.90;;;;;;5032347;28;20428;-68
2024/02/08 11:57:09;;;;;;;9.37;5.60;;;6.40;99.90;;;;;;5031426;28;20430;-66
2024/02/08 11:59:38;;;;;;;7.47;5.50;;;6.50;99.90;;;;;;5012538;28;20468;-67
2024/02/08 12:02:10;;;;;;;9.37;6.00;;;6.50;99.90;;;;;;5031251;28;20457;-67
2024/02/08 12:04:36;;;;;;;9.40;6.70;;;6.50;99.90;;;;;;5030548;28;20432;-70
2024/02/08 12:07:07;;;;;;;14.10;10.40;;;6.50;99.90;;;;;;5031010;28;20444;-66
2024/02/08 12:09:36;;;;;;;8.50;6.23;;;6.50;99.90;;;;;;5030317;28;20487;-66
2024/02/08 12:12:03;;;;;;;8.00;6.07;;;6.40;99.90;;;;;;5019735;28;20440;-71
2024/02/08 12:14:29;;;;;;;9.90;6.47;;;6.50;99.90;;;;;;5031593;28;20994;-69
2024/02/08 12:16:59;;;;;;;7.70;6.30;;;6.50;99.90;;;;;;5029589;28;20425;-67
2024/02/08 12:19:27;;;;;;;8.53;6.80;;;6.60;99.90;;;;;;5027570;28;20487;-66
2024/02/08 12:22:04;;;;;;;8.83;6.30;;;6.60;99.90;;;;;;5026474;28;20441;-66
2024/02/08 12:24:31;;;;;;;11.73;7.20;;;6.60;99.90;;;;;;5031578;28;20871;-69
2024/02/08 12:27:12;;;;;;;9.27;6.97;;;6.60;99.90;;;;;;5029038;28;20424;-67
2024/02/08 12:29:42;;;;;;;8.93;6.60;;;6.60;99.90;;;;;;5029096;28;20420;-72
2024/02/08 12:32:16;;;;;;;7.67;6.30;;;6.70;99.90;;;;;;5030410;28;20998;-71
2024/02/08 12:34:43;;;;;;;7.63;6.20;;;6.70;99.90;;;;;;5030675;28;20429;-65
2024/02/08 12:37:12;;;;;;;7.87;6.13;;;6.70;99.90;;;;;;5031332;28;20536;-68
2024/02/08 12:39:44;;;;;;;8.90;7.03;;;6.70;99.90;;;;;;5030531;28;20580;-70
2024/02/08 12:42:13;;;;;;;8.03;6.10;;;6.70;99.90;;;;;;5031310;28;20494;-64
2024/02/08 12:44:39;;;;;;;9.47;7.30;;;6.80;99.90;;;;;;5030182;28;20458;-67
2024/02/08 12:47:06;;;;;;;8.63;6.47;;;6.80;99.90;;;;;;5028212;28;20930;-65
2024/02/08 12:49:34;;;;;;;8.47;6.00;;;6.80;99.90;;;;;;5028160;28;20519;-67
2024/02/08 12:52:10;;;;;;;10.90;6.63;;;6.80;99.90;;;;;;5027287;28;20417;-66
2024/02/08 12:54:37;;;;;;;7.67;6.17;;;6.80;99.90;;;;;;5029570;28;20450;-67
2024/02/08 12:57:10;;;;;;;8.13;6.53;;;6.80;99.90;;;;;;5028222;28;20429;-65
2024/02/08 12:59:47;;;;;;;10.00;6.97;;;6.80;99.90;;;;;;5028552;28;20484;-70
2024/02/08 13:02:17;;;;;;;10.47;7.33;;;6.80;99.90;;;;;;5029416;28;20440;-68
2024/02/08 13:04:44;;;;;;;8.00;7.20;;;6.90;99.90;;;;;;5027483;28;20476;-69
2024/02/08 13:07:18;;;;;;;10.87;6.50;;;6.80;99.90;;;;;;5027174;28;20432;-66
2024/02/08 13:09:45;;;;;;;7.60;5.60;;;6.80;99.90;;;;;;5028802;28;20990;-69
2024/02/08 13:12:17;;;;;;;8.40;6.53;;;6.80;99.90;;;;;;5027698;28;20428;-66
2024/02/08 13:14:56;;;;;;;7.20;6.17;;;6.80;99.90;;;;;;5029786;28;20471;-65
2024/02/08 13:17:25;;;;;;;8.60;6.00;;;6.80;99.90;;;;;;5028254;28;20440;-68
2024/02/08 13:19:56;;;;;;;7.63;6.63;;;6.70;99.90;;;;;;5027679;28;20498;-68
2024/02/08 13:22:31;;;;;;;8.67;7.00;;;6.70;99.90;;;;;;5025182;28;20502;-68
2024/02/08 13:24:58;;;;;;;7.73;6.80;;;6.70;99.90;;;;;;5028112;28;20432;-66
2024/02/08 13:27:25;;;;;;;7.77;6.27;;;6.70;99.90;;;;;;5028109;28;20433;-68
2024/02/08 13:29:54;;;;;;;7.77;6.97;;;6.70;99.90;;;;;;5028306;28;21148;-66
2024/02/08 13:32:29;;;;;;;10.17;7.43;;;6.70;99.90;;;;;;5030287;28;21420;-69
2024/02/08 13:34:57;;;;;;;8.63;7.17;;;6.70;99.90;;;;;;5029553;28;20437;-68
2024/02/08 13:37:26;;;;;;;10.13;8.00;;;6.60;99.90;;;;;;5011944;28;21032;-68
2024/02/08 13:39:59;;;;;;;9.53;8.53;;;6.60;99.90;;;;;;5028981;28;20482;-65
2024/02/08 13:42:31;;;;;;;10.43;7.83;;;6.60;99.90;;;;;;5029407;28;20591;-66
2024/02/08 13:44:57;;;;;;;9.93;8.50;;;6.60;99.90;;;;;;5028813;28;20432;-67
2024/02/08 13:47:27;;;;;;;11.00;7.37;;;6.70;99.90;;;;;;5029058;28;20445;-64
2024/02/08 13:49:54;;;;;;;7.90;6.90;;;6.70;99.90;;;;;;5029612;28;20541;-66
2024/02/08 13:52:25;;;;;;;7.57;6.77;;;6.70;99.90;;;;;;5029581;28;20490;-69
2024/02/08 13:54:52;;;;;;;9.23;7.50;;;6.70;99.90;;;;;;5029602;28;21079;-67
2024/02/08 13:57:19;;;;;;;8.27;6.60;;;6.70;99.90;;;;;;5028231;28;20527;-69
2024/02/08 13:59:55;;;;;;;9.83;7.23;;;6.70;99.90;;;;;;5029484;28;20465;-72
2024/02/08 14:02:23;;;;;;;10.33;8.50;;;6.70;99.90;;;;;;5028253;28;21054;-67
2024/02/08 14:05:04;;;;;;;8.30;6.63;;;6.70;99.90;;;;;;5029496;28;20837;-70
2024/02/08 14:07:30;;;;;;;8.33;6.97;;;6.70;99.90;;;;;;5027622;28;20443;-71
2024/02/08 14:09:59;;;;;;;8.30;7.13;;;6.70;99.90;;;;;;5026645;28;21016;-67
2024/02/08 14:12:33;;;;;;;9.67;7.40;;;6.70;99.90;;;;;;5028278;28;21087;-68
2024/02/08 14:15:06;;;;;;;9.10;6.20;;;6.70;99.90;;;;;;5027514;28;20482;-63
2024/02/08 14:17:34;;;;;;;8.50;6.57;;;6.70;99.90;;;;;;5029282;28;20448;-66
2024/02/08 14:20:30;;;;;;;6.70;6.03;;;6.80;99.90;;;;;;5029472;28;20468;-68
2024/02/08 14:22:59;;;;;;;7.13;6.30;;;6.80;99.90;;;;;;5017747;28;20945;-64
2024/02/08 14:25:37;;;;;;;6.33;5.73;;;6.80;99.90;;;;;;5031811;28;20511;-68
2024/02/08 14:28:09;;;;;;;6.03;5.50;;;6.70;99.90;;;;;;5029878;28;20455;-68
2024/02/08 14:30:35;;;;;;;8.50;5.50;;;6.70;99.90;;;;;;5032432;28;20437;-67
2024/02/08 14:33:01;;;;;;;6.17;5.20;;;6.70;99.90;;;;;;5032075;28;20432;-66
2024/02/08 14:35:31;;;;;;;6.53;5.93;;;6.70;99.90;;;;;;5031991;28;20454;-66
2024/02/08 14:37:58;;;;;;;5.87;5.27;;;6.70;99.90;;;;;;5031849;28;20206;-65
2024/02/08 14:40:27;;;;;;;5.93;5.33;;;6.70;99.90;;;;;;5031834;28;20483;-64
2024/02/08 14:42:57;;;;;;;5.97;5.37;;;6.70;99.90;;;;;;5032108;28;20500;-66
2024/02/08 14:45:35;;;;;;;5.17;4.67;;;6.60;99.90;;;;;;5030790;28;20429;-68
2024/02/08 14:48:10;;;;;;;5.03;4.43;;;6.70;99.90;;;;;;5032874;28;21384;-68
2024/02/08 14:50:49;;;;;;;5.27;4.83;;;6.60;99.90;;;;;;5030811;28;20475;-70
2024/02/08 14:53:18;;;;;;;5.97;4.77;;;6.60;99.90;;;;;;5030600;28;20432;-65
2024/02/08 14:55:45;;;;;;;5.10;4.60;;;6.60;99.90;;;;;;5030627;28;20445;-67
2024/02/08 14:58:32;;;;;;;6.90;5.50;;;6.60;99.90;;;;;;5030923;28;20601;-66
2024/02/08 15:01:07;;;;;;;5.33;4.53;;;6.70;99.90;;;;;;5031371;28;20476;-68
2024/02/08 15:03:43;;;;;;;5.90;4.93;;;6.60;99.90;;;;;;5031474;28;20478;-69
2024/02/08 15:09:06;;;;;;;5.57;5.07;;;6.50;99.90;;;;;;5031989;28;20433;-67
2024/02/08 15:11:50;;;;;;;6.60;5.43;;;6.50;99.90;;;;;;5029931;28;20440;-69
2024/02/08 15:14:18;;;;;;;5.90;5.30;;;6.50;99.90;;;;;;5030775;28;20904;-66
2024/02/08 15:16:44;;;;;;;6.27;5.50;;;6.50;99.90;;;;;;5030786;28;20475;-67
2024/02/08 15:19:10;;;;;;;6.07;5.00;;;6.40;99.90;;;;;;5031756;28;20989;-67
2024/02/08 15:21:36;;;;;;;7.20;5.80;;;6.40;99.90;;;;;;5030248;28;20417;-66